Time;durP1;ratioP1;P1;durP2;ratioP2;P2;SDS_P1;SDS_P2;PMS_P1;PMS_P2;Temp;Humidity;BMP_temperature;BMP_pressure;BME280_temperature;BME280_humidity;BME280_pressure;Samples;Min_cycle;Max_cycle;Signal;HPM_P1;HPM_P2
2022/01/15 00:00:19;;;;;;;16.17;8.55;;;-1.10;71.70;;;;;;5109643;27;46367;-68
2022/01/15 00:02:45;;;;;;;13.95;9.13;;;-1.20;71.80;;;;;;5103710;27;46399;-66
2022/01/15 00:05:11;;;;;;;15.20;9.23;;;-1.20;71.90;;;;;;5109532;27;45968;-66
2022/01/15 00:07:38;;;;;;;13.63;8.45;;;-1.20;71.90;;;;;;5108495;27;47241;-66
2022/01/15 00:10:05;;;;;;;14.85;8.90;;;-1.20;71.90;;;;;;5103587;27;46294;-66
2022/01/15 00:12:40;;;;;;;14.57;7.32;;;-1.20;72.00;;;;;;5104771;27;46566;-66
2022/01/15 00:15:14;;;;;;;13.30;7.72;;;-1.20;72.00;;;;;;5108533;27;46412;-66
2022/01/15 00:17:55;;;;;;;12.93;7.85;;;-1.30;72.10;;;;;;5097081;27;47914;-66
2022/01/15 00:20:23;;;;;;;18.30;9.35;;;-1.30;72.20;;;;;;5103292;27;46447;-67
2022/01/15 00:22:51;;;;;;;16.55;8.48;;;-1.30;72.20;;;;;;5109630;27;46330;-67
2022/01/15 00:25:19;;;;;;;15.93;8.63;;;-1.40;72.20;;;;;;5107188;27;45855;-66
2022/01/15 00:27:44;;;;;;;15.77;9.25;;;-1.40;72.30;;;;;;5109630;27;48091;-65
2022/01/15 00:30:11;;;;;;;20.83;9.77;;;-1.40;72.20;;;;;;5095392;27;45776;-65
2022/01/15 00:32:38;;;;;;;16.63;8.80;;;-1.40;72.30;;;;;;5104784;27;46429;-66
2022/01/15 00:35:05;;;;;;;17.92;9.45;;;-1.40;72.30;;;;;;5103492;27;46521;-66
2022/01/15 00:37:34;;;;;;;11.63;7.65;;;-1.40;72.50;;;;;;5103252;27;48116;-66
2022/01/15 00:40:03;;;;;;;16.08;10.15;;;-1.50;72.30;;;;;;5104249;27;46543;-66
2022/01/15 00:42:30;;;;;;;13.57;8.25;;;-1.50;72.30;;;;;;5121753;27;46315;-65
2022/01/15 00:44:57;;;;;;;15.55;8.90;;;-1.50;72.40;;;;;;5108404;27;46353;-66
2022/01/15 00:47:25;;;;;;;16.15;9.35;;;-1.50;72.50;;;;;;5110445;27;47859;-65
2022/01/15 00:49:51;;;;;;;22.60;10.82;;;-1.50;72.40;;;;;;5108439;27;46378;-65
2022/01/15 00:52:17;;;;;;;20.30;11.90;;;-1.50;72.40;;;;;;5109398;27;46309;-64
2022/01/15 00:54:43;;;;;;;19.53;12.33;;;-1.50;72.40;;;;;;5104737;27;46216;-65
2022/01/15 00:57:08;;;;;;;19.00;11.13;;;-1.50;72.40;;;;;;5103119;27;47146;-66
2022/01/15 00:59:37;;;;;;;18.83;12.10;;;-1.50;72.60;;;;;;5103337;27;46260;-65
2022/01/15 01:02:03;;;;;;;19.08;10.93;;;-1.60;72.70;;;;;;5105482;27;46195;-66
2022/01/15 01:04:29;;;;;;;24.00;11.27;;;-1.60;72.90;;;;;;5119597;27;46549;-66
2022/01/15 01:06:54;;;;;;;17.97;10.63;;;-1.60;72.90;;;;;;5105863;27;49097;-65
2022/01/15 01:09:21;;;;;;;23.47;12.93;;;-1.60;72.90;;;;;;5103789;27;46460;-65
2022/01/15 01:11:54;;;;;;;26.55;14.30;;;-1.60;72.80;;;;;;5102277;27;46353;-65
2022/01/15 01:24:56;;;;;;;19.90;11.17;;;-1.70;72.80;;;;;;5106352;27;45811;-65
2022/01/15 01:27:29;;;;;;;16.63;9.70;;;-1.60;72.80;;;;;;5103609;27;46752;-65
2022/01/15 01:35:31;;;;;;;18.95;11.40;;;-1.70;72.90;;;;;;5102862;27;45785;-66
2022/01/15 01:37:55;;;;;;;20.95;10.60;;;-1.70;72.90;;;;;;5103591;27;46913;-65
2022/01/15 01:43:06;;;;;;;18.77;10.03;;;-1.80;72.90;;;;;;5108187;27;45948;-66
2022/01/15 01:45:32;;;;;;;15.15;9.60;;;-1.80;73.00;;;;;;5108492;27;46387;-67
2022/01/15 01:47:58;;;;;;;17.53;10.80;;;-1.80;73.00;;;;;;5105540;27;48673;-66
2022/01/15 01:50:26;;;;;;;21.10;12.27;;;-1.90;72.90;;;;;;5105258;27;46375;-66
2022/01/15 01:52:55;;;;;;;20.88;11.52;;;-1.90;72.90;;;;;;5106821;27;46440;-66
2022/01/15 01:55:23;;;;;;;21.70;11.50;;;-1.90;72.90;;;;;;5106440;27;45887;-65
2022/01/15 01:57:51;;;;;;;22.63;11.15;;;-1.90;72.90;;;;;;5103222;27;47931;-65
2022/01/15 02:00:19;;;;;;;19.02;9.88;;;-1.90;72.90;;;;;;5102723;27;46340;-66
2022/01/15 02:02:46;;;;;;;21.48;11.85;;;-1.90;72.90;;;;;;5105121;27;46381;-66
2022/01/15 02:05:13;;;;;;;29.58;12.05;;;-1.90;72.90;;;;;;5106930;27;46377;-66
2022/01/15 02:07:41;;;;;;;21.70;10.63;;;-1.90;72.90;;;;;;5106962;27;48018;-65
2022/01/15 02:10:09;;;;;;;20.00;10.60;;;-2.00;72.90;;;;;;5106045;27;46688;-66
2022/01/15 02:12:35;;;;;;;17.20;10.35;;;-2.00;72.90;;;;;;5104178;27;46719;-66
2022/01/15 02:15:08;;;;;;;20.60;10.45;;;-2.00;72.90;;;;;;5104218;27;46546;-66
2022/01/15 02:17:35;;;;;;;17.67;9.52;;;-2.00;73.00;;;;;;5100895;27;46553;-66
2022/01/15 02:25:42;;;;;;;18.25;9.40;;;-2.10;72.90;;;;;;5106125;27;46361;-66
2022/01/15 02:28:08;;;;;;;19.73;10.00;;;-2.10;73.00;;;;;;5102072;27;47824;-66
2022/01/15 02:30:34;;;;;;;20.02;11.13;;;-2.10;73.10;;;;;;5108743;27;46378;-66
2022/01/15 02:33:00;;;;;;;17.20;9.47;;;-2.20;73.10;;;;;;5102200;27;46545;-66
2022/01/15 02:35:25;;;;;;;17.63;9.40;;;-2.20;73.20;;;;;;5104880;27;46419;-66
2022/01/15 02:37:51;;;;;;;15.17;9.73;;;-2.20;73.20;;;;;;5118826;27;47905;-66
2022/01/15 02:40:17;;;;;;;18.90;9.40;;;-2.20;73.20;;;;;;5103619;27;46486;-66
2022/01/15 02:42:43;;;;;;;16.77;9.60;;;-2.20;73.20;;;;;;5106187;27;46417;-63
2022/01/15 02:45:08;;;;;;;16.40;8.60;;;-2.20;73.30;;;;;;5104636;27;46428;-66
2022/01/15 02:50:22;;;;;;;18.17;9.35;;;-2.30;73.20;;;;;;5104540;27;46307;-66
2022/01/15 02:52:48;;;;;;;15.32;8.35;;;-2.30;73.30;;;;;;5100868;27;46486;-67
2022/01/15 02:55:14;;;;;;;12.60;8.13;;;-2.40;73.20;;;;;;5102615;27;46222;-66
2022/01/15 02:57:39;;;;;;;14.80;9.13;;;-2.40;73.30;;;;;;5102446;27;49012;-66
2022/01/15 03:00:06;;;;;;;16.20;9.10;;;-2.40;74.50;;;;;;5103815;27;46513;-66
2022/01/15 03:02:33;;;;;;;11.98;7.82;;;-2.40;73.30;;;;;;5101368;27;45781;-66
2022/01/15 03:04:58;;;;;;;15.38;9.30;;;-2.40;73.30;;;;;;5102617;27;46547;-67
2022/01/15 03:07:25;;;;;;;13.70;8.60;;;-2.40;73.30;;;;;;5102377;27;47838;-66
2022/01/15 03:09:51;;;;;;;14.00;8.13;;;-2.40;73.40;;;;;;5101158;27;46300;-66
2022/01/15 03:12:17;;;;;;;14.60;7.70;;;-2.40;73.40;;;;;;5103201;27;46426;-66
2022/01/15 03:14:45;;;;;;;18.13;8.70;;;-2.40;73.30;;;;;;5101491;27;46306;-66
2022/01/15 03:17:14;;;;;;;15.52;7.95;;;-2.40;73.30;;;;;;5101724;27;47846;-66
2022/01/15 03:19:39;;;;;;;14.40;7.72;;;-2.50;73.10;;;;;;5101085;27;46556;-66
2022/01/15 03:22:05;;;;;;;13.47;7.60;;;-2.40;73.30;;;;;;5103824;27;46396;-66
2022/01/15 03:24:31;;;;;;;11.63;7.30;;;-2.50;73.20;;;;;;5105229;27;45946;-66
2022/01/15 03:26:57;;;;;;;15.70;8.53;;;-2.50;73.20;;;;;;5104191;27;46480;-65
2022/01/15 03:29:22;;;;;;;18.10;8.10;;;-2.50;73.20;;;;;;5101191;27;46389;-65
2022/01/15 03:31:48;;;;;;;16.47;7.60;;;-2.50;73.20;;;;;;5101964;27;46608;-65
2022/01/15 03:34:13;;;;;;;13.43;7.73;;;-2.50;73.00;;;;;;5103491;27;46389;-64
2022/01/15 03:36:39;;;;;;;10.50;6.90;;;-2.50;73.00;;;;;;5103422;27;46517;-65
2022/01/15 03:39:05;;;;;;;13.20;7.90;;;-2.50;73.10;;;;;;5100747;27;46424;-66
2022/01/15 03:41:31;;;;;;;14.20;7.60;;;-2.50;73.10;;;;;;5102109;27;46356;-66
2022/01/15 03:43:56;;;;;;;12.97;6.80;;;-2.60;73.00;;;;;;5101796;27;46335;-67
2022/01/15 03:46:22;;;;;;;14.33;6.47;;;-2.60;73.10;;;;;;5102087;27;47936;-66
2022/01/15 03:48:51;;;;;;;15.30;7.07;;;-2.60;73.20;;;;;;5104099;27;46329;-66
2022/01/15 03:51:19;;;;;;;12.75;7.00;;;-2.60;73.20;;;;;;5105392;27;46291;-67
2022/01/15 03:53:46;;;;;;;12.15;7.20;;;-2.60;73.10;;;;;;5101140;27;46324;-66
2022/01/15 03:56:11;;;;;;;15.35;8.68;;;-2.70;73.10;;;;;;5100898;27;47771;-66
2022/01/15 03:58:37;;;;;;;11.10;7.37;;;-2.70;73.20;;;;;;5094760;27;45884;-66
2022/01/15 04:01:03;;;;;;;13.23;7.10;;;-2.70;74.40;;;;;;5108729;27;46362;-65
2022/01/15 04:03:28;;;;;;;10.37;7.37;;;-2.70;73.10;;;;;;5112198;27;46474;-66
2022/01/15 04:05:54;;;;;;;13.87;7.50;;;-2.70;73.20;;;;;;5114597;27;46478;-65
2022/01/15 04:08:20;;;;;;;13.23;7.47;;;-2.70;73.10;;;;;;5114722;27;46194;-66
2022/01/15 04:10:46;;;;;;;12.27;7.40;;;-2.70;73.10;;;;;;5104363;27;46294;-65
2022/01/15 04:13:15;;;;;;;12.70;7.47;;;-2.70;73.10;;;;;;5105078;27;46227;-66
2022/01/15 04:15:43;;;;;;;13.18;7.07;;;-2.70;73.10;;;;;;5104099;27;46554;-67
2022/01/15 04:18:10;;;;;;;11.90;7.00;;;-2.70;73.20;;;;;;5103327;27;46269;-67
2022/01/15 04:20:36;;;;;;;11.90;6.78;;;-2.70;73.20;;;;;;5105389;27;46398;-66
2022/01/15 04:23:01;;;;;;;13.73;7.57;;;-2.80;73.00;;;;;;5103143;27;46375;-67
2022/01/15 04:25:27;;;;;;;13.93;8.30;;;-2.80;73.00;;;;;;5108346;27;46319;-67
2022/01/15 04:27:56;;;;;;;13.47;7.53;;;-2.80;73.10;;;;;;5108606;27;46449;-66
2022/01/15 04:30:24;;;;;;;20.05;7.63;;;-2.80;73.10;;;;;;5103598;27;46317;-65
2022/01/15 04:32:50;;;;;;;14.10;7.13;;;-2.80;73.00;;;;;;5103274;27;45882;-67
2022/01/15 04:35:15;;;;;;;12.20;7.03;;;-2.80;73.10;;;;;;5109885;27;47966;-66
2022/01/15 04:37:48;;;;;;;13.20;7.20;;;-2.80;73.00;;;;;;5107904;27;46246;-67
2022/01/15 04:40:15;;;;;;;11.85;7.05;;;-2.80;73.20;;;;;;5102639;27;46863;-64
2022/01/15 04:42:41;;;;;;;17.10;7.60;;;-2.80;73.20;;;;;;5104077;27;46373;-67
2022/01/15 04:45:07;;;;;;;13.60;6.47;;;-2.80;73.00;;;;;;5100875;27;46444;-67
2022/01/15 04:47:35;;;;;;;13.20;7.45;;;-2.80;72.90;;;;;;5091762;27;45920;-66
2022/01/15 04:50:01;;;;;;;11.38;6.40;;;-2.80;72.90;;;;;;5107586;27;46471;-68
2022/01/15 04:52:27;;;;;;;10.98;7.15;;;-2.80;74.10;;;;;;5105504;27;45878;-66
2022/01/15 04:54:52;;;;;;;11.40;6.60;;;-2.80;72.90;;;;;;5104393;27;46716;-66
2022/01/15 04:57:19;;;;;;;11.07;6.93;;;-2.80;72.90;;;;;;5106942;27;46419;-66
2022/01/15 04:59:44;;;;;;;11.15;7.00;;;-2.90;72.90;;;;;;5105100;27;46574;-66
2022/01/15 05:02:10;;;;;;;11.43;6.73;;;-2.90;72.90;;;;;;5105426;27;46311;-66
2022/01/15 05:04:36;;;;;;;13.23;6.80;;;-2.90;72.90;;;;;;5104660;27;46313;-67
2022/01/15 05:07:02;;;;;;;12.40;6.50;;;-2.90;73.00;;;;;;5105718;27;46523;-66
2022/01/15 05:09:28;;;;;;;9.65;6.65;;;-3.00;73.00;;;;;;5111848;27;45769;-66
2022/01/15 05:12:09;;;;;;;12.10;7.10;;;-3.00;72.90;;;;;;5108785;27;46223;-66
2022/01/15 05:14:35;;;;;;;11.45;6.20;;;-3.00;72.90;;;;;;5109076;27;47712;-66
2022/01/15 05:17:02;;;;;;;13.43;7.18;;;-2.90;72.90;;;;;;5111267;27;45889;-65
2022/01/15 05:19:28;;;;;;;9.85;5.75;;;-3.00;72.80;;;;;;5107175;27;46264;-66
2022/01/15 05:21:58;;;;;;;12.57;6.88;;;-3.00;72.90;;;;;;5103590;27;46269;-66
2022/01/15 05:24:29;;;;;;;11.75;6.75;;;-3.00;72.90;;;;;;5102495;27;47296;-66
2022/01/15 05:26:55;;;;;;;12.27;5.95;;;-3.00;72.90;;;;;;5107724;27;46385;-66
2022/01/15 05:29:20;;;;;;;12.37;6.00;;;-3.00;72.90;;;;;;5111132;27;46366;-65
2022/01/15 05:31:46;;;;;;;10.73;6.30;;;-3.00;72.90;;;;;;5104473;27;46447;-65
2022/01/15 05:34:12;;;;;;;12.07;6.47;;;-3.00;72.80;;;;;;5105664;27;48852;-65
2022/01/15 05:36:39;;;;;;;11.43;6.10;;;-3.00;72.80;;;;;;5103713;27;46357;-65
2022/01/15 05:39:08;;;;;;;12.75;6.55;;;-3.00;72.90;;;;;;5102155;27;46326;-67
2022/01/15 05:41:34;;;;;;;13.02;7.35;;;-3.00;72.90;;;;;;5101748;27;46606;-64
2022/01/15 05:44:02;;;;;;;11.60;7.00;;;-3.00;72.90;;;;;;5103477;27;47927;-66
2022/01/15 05:46:29;;;;;;;12.25;6.22;;;-3.10;72.90;;;;;;5102443;27;46486;-66
2022/01/15 05:48:56;;;;;;;13.40;7.55;;;-3.10;72.90;;;;;;5094668;27;46350;-67
2022/01/15 05:51:21;;;;;;;10.88;6.35;;;-3.10;72.90;;;;;;5110081;27;46094;-64
2022/01/15 05:53:47;;;;;;;16.33;8.63;;;-3.10;72.90;;;;;;5106569;27;46206;-66
2022/01/15 05:56:13;;;;;;;13.20;7.37;;;-3.00;72.80;;;;;;5105822;27;46308;-67
2022/01/15 05:58:38;;;;;;;14.60;7.47;;;-3.00;72.70;;;;;;5104365;27;46313;-66
2022/01/15 06:01:04;;;;;;;22.70;7.50;;;-3.00;72.60;;;;;;5106178;27;46321;-64
2022/01/15 06:03:30;;;;;;;14.77;7.70;;;-3.00;72.60;;;;;;5091809;27;48638;-64
2022/01/15 06:05:56;;;;;;;10.40;6.37;;;-3.10;72.50;;;;;;5103454;27;45778;-67
2022/01/15 06:08:21;;;;;;;16.23;7.93;;;-3.10;72.60;;;;;;5113460;27;46022;-67
2022/01/15 06:10:47;;;;;;;22.60;10.47;;;-3.10;72.50;;;;;;5112735;27;46582;-68
2022/01/15 06:13:13;;;;;;;16.20;8.80;;;-3.10;72.50;;;;;;5105103;27;48058;-65
2022/01/15 06:15:38;;;;;;;25.90;10.40;;;-3.10;72.60;;;;;;5102676;27;46268;-66
2022/01/15 06:18:04;;;;;;;16.97;8.80;;;-3.10;72.60;;;;;;5105758;27;46366;-66
2022/01/15 06:20:30;;;;;;;15.83;9.30;;;-3.10;72.80;;;;;;5102106;27;46278;-66
2022/01/15 06:22:55;;;;;;;17.33;9.63;;;-3.10;72.60;;;;;;5101953;27;48879;-66
2022/01/15 06:25:21;;;;;;;17.80;8.90;;;-3.10;72.70;;;;;;5103504;27;45796;-66
2022/01/15 06:27:47;;;;;;;21.40;8.80;;;-3.10;72.60;;;;;;5106178;27;46350;-67
2022/01/15 06:30:13;;;;;;;13.47;7.50;;;-3.10;72.50;;;;;;5105805;27;46338;-67
2022/01/15 06:32:39;;;;;;;16.17;8.80;;;-3.10;72.50;;;;;;5105915;27;47817;-66
2022/01/15 06:35:07;;;;;;;15.07;8.07;;;-3.10;72.60;;;;;;5112281;27;45840;-66
2022/01/15 06:37:33;;;;;;;18.55;9.38;;;-3.10;72.40;;;;;;5106388;27;46379;-66
2022/01/15 06:39:59;;;;;;;15.77;9.00;;;-3.10;72.50;;;;;;5103437;27;46239;-66
2022/01/15 06:42:24;;;;;;;14.30;9.07;;;-3.10;72.40;;;;;;5101614;27;48207;-65
2022/01/15 06:44:50;;;;;;;14.83;8.13;;;-3.20;72.40;;;;;;5101345;27;46365;-67
2022/01/15 06:47:16;;;;;;;14.43;7.90;;;-3.20;72.90;;;;;;5104868;27;46236;-64
2022/01/15 06:49:41;;;;;;;12.33;7.13;;;-3.20;73.00;;;;;;5102259;27;46538;-67
2022/01/15 06:52:07;;;;;;;13.23;7.27;;;-3.20;73.00;;;;;;5104119;27;48663;-66
2022/01/15 06:54:33;;;;;;;10.80;6.40;;;-3.20;72.90;;;;;;5105520;27;45864;-65
2022/01/15 06:57:02;;;;;;;11.10;6.13;;;-3.20;72.70;;;;;;5106730;27;46517;-66
2022/01/15 06:59:27;;;;;;;11.90;6.15;;;-3.10;72.70;;;;;;5106899;27;46456;-66
2022/01/15 07:01:53;;;;;;;41.33;18.10;;;-3.10;72.60;;;;;;5105286;27;48110;-66
2022/01/15 07:04:19;;;;;;;56.40;24.07;;;-3.00;72.60;;;;;;5105053;27;46461;-66
2022/01/15 07:06:44;;;;;;;30.97;14.87;;;-2.80;72.50;;;;;;5103057;27;45831;-66
2022/01/15 07:09:10;;;;;;;30.60;15.93;;;-2.70;72.30;;;;;;5102350;27;46636;-65
2022/01/15 07:11:36;;;;;;;33.10;14.70;;;-2.50;72.30;;;;;;5101379;27;48123;-64
2022/01/15 07:14:01;;;;;;;28.23;12.80;;;-2.30;71.90;;;;;;5102529;27;46452;-67
2022/01/15 07:16:27;;;;;;;18.60;9.40;;;-2.30;71.70;;;;;;5102028;27;46379;-67
2022/01/15 07:18:53;;;;;;;16.80;9.10;;;-2.20;71.40;;;;;;5105656;27;46399;-64
2022/01/15 07:21:18;;;;;;;15.60;8.40;;;-2.10;71.10;;;;;;5102238;27;47995;-64
2022/01/15 07:23:44;;;;;;;21.07;9.33;;;-2.10;70.90;;;;;;5101071;27;46372;-66
2022/01/15 07:26:10;;;;;;;19.57;10.00;;;-2.00;70.80;;;;;;5103086;27;45889;-65
2022/01/15 07:28:36;;;;;;;23.35;9.60;;;-1.70;70.70;;;;;;5097338;27;46479;-65
2022/01/15 07:31:02;;;;;;;20.63;10.60;;;-1.50;70.30;;;;;;5104246;27;49133;-66
2022/01/15 07:33:28;;;;;;;17.70;10.30;;;-1.30;70.00;;;;;;5106103;27;46357;-66
2022/01/15 07:35:55;;;;;;;26.77;12.93;;;-1.20;70.00;;;;;;5105270;27;46397;-65
2022/01/15 07:38:21;;;;;;;52.05;24.63;;;-1.00;69.90;;;;;;5105086;27;46400;-66
2022/01/15 07:40:48;;;;;;;48.28;20.85;;;-0.90;69.80;;;;;;5106136;27;47420;-65
2022/01/15 07:43:14;;;;;;;41.10;19.73;;;-0.80;70.30;;;;;;5107803;27;46371;-66
2022/01/15 07:45:40;;;;;;;39.63;17.77;;;-0.60;70.40;;;;;;5104972;27;46387;-65
2022/01/15 07:48:05;;;;;;;48.23;19.13;;;-0.50;70.20;;;;;;5107332;27;46455;-66
2022/01/15 07:50:31;;;;;;;49.97;21.17;;;-0.40;70.10;;;;;;5104864;27;48840;-65
2022/01/15 07:52:58;;;;;;;45.43;20.30;;;-0.20;69.90;;;;;;5103025;27;46168;-65
2022/01/15 07:55:26;;;;;;;61.30;20.15;;;-0.10;69.60;;;;;;5097245;27;46782;-66
2022/01/15 07:57:52;;;;;;;77.13;18.02;;;0.00;69.50;;;;;;5104085;27;46682;-65
2022/01/15 08:00:19;;;;;;;47.90;16.38;;;0.00;69.30;;;;;;5104506;27;46363;-65
2022/01/15 08:02:45;;;;;;;65.20;14.90;;;0.00;69.50;;;;;;5115955;27;46484;-65
2022/01/15 08:05:12;;;;;;;45.53;12.10;;;0.00;70.30;;;;;;5116292;27;45832;-67
2022/01/15 08:07:40;;;;;;;69.68;14.57;;;-0.10;70.70;;;;;;5108588;27;46466;-66
2022/01/15 08:10:07;;;;;;;75.38;13.20;;;-0.20;71.60;;;;;;5106168;27;46795;-66
2022/01/15 08:12:34;;;;;;;35.90;12.85;;;-0.20;71.80;;;;;;5102855;27;46350;-66
2022/01/15 08:15:00;;;;;;;51.47;12.55;;;-0.10;71.90;;;;;;5103685;27;46543;-64
2022/01/15 08:17:26;;;;;;;45.97;12.88;;;-0.10;72.00;;;;;;5114875;27;46427;-64
2022/01/15 08:19:52;;;;;;;41.97;14.50;;;-0.20;72.60;;;;;;5103421;27;47766;-64
2022/01/15 08:22:17;;;;;;;40.57;13.47;;;-0.20;72.80;;;;;;5103951;27;46932;-67
2022/01/15 08:24:43;;;;;;;71.70;20.80;;;-0.20;73.00;;;;;;5103582;27;46499;-67
2022/01/15 08:27:09;;;;;;;39.93;12.90;;;-0.10;73.00;;;;;;5104137;27;46443;-66
2022/01/15 08:29:34;;;;;;;66.43;21.30;;;-0.10;73.30;;;;;;5104178;27;46409;-66
2022/01/15 08:32:00;;;;;;;88.83;23.20;;;-0.10;73.50;;;;;;5104537;27;46713;-67
2022/01/15 08:34:26;;;;;;;160.57;44.30;;;0.00;73.50;;;;;;5107078;27;46207;-67
2022/01/15 08:36:52;;;;;;;170.57;38.20;;;0.10;73.20;;;;;;5102517;27;46375;-66
2022/01/15 08:39:18;;;;;;;66.80;19.77;;;0.30;72.80;;;;;;5091675;27;48141;-67
2022/01/15 08:41:48;;;;;;;70.90;16.73;;;0.40;72.40;;;;;;5108638;27;46474;-66
2022/01/15 08:44:15;;;;;;;81.45;32.40;;;0.40;72.30;;;;;;5107299;27;46350;-65
2022/01/15 08:46:41;;;;;;;63.70;16.58;;;0.40;72.60;;;;;;5103040;27;46382;-66
2022/01/15 08:49:07;;;;;;;58.40;20.23;;;0.40;72.80;;;;;;5103149;27;48070;-66
2022/01/15 08:51:32;;;;;;;48.03;19.10;;;0.50;73.00;;;;;;5105085;27;45865;-65
2022/01/15 08:53:58;;;;;;;64.43;15.50;;;0.50;72.90;;;;;;5105714;27;46325;-65
2022/01/15 08:56:24;;;;;;;46.60;18.60;;;0.50;72.90;;;;;;5110905;27;46402;-66
2022/01/15 08:58:49;;;;;;;44.30;18.10;;;0.60;72.80;;;;;;5107171;27;47808;-66
2022/01/15 09:01:15;;;;;;;40.20;17.13;;;0.70;72.30;;;;;;5101883;27;46630;-66
2022/01/15 09:03:42;;;;;;;58.33;16.50;;;0.90;71.80;;;;;;5100908;27;46286;-66
2022/01/15 09:06:08;;;;;;;49.45;16.35;;;1.00;71.30;;;;;;5095177;27;46506;-66
2022/01/15 09:08:34;;;;;;;49.13;15.68;;;1.00;71.60;;;;;;5104284;27;48908;-66
2022/01/15 09:11:00;;;;;;;35.97;15.50;;;1.00;71.80;;;;;;5104165;27;46416;-67
2022/01/15 09:13:27;;;;;;;62.70;16.93;;;1.00;71.90;;;;;;5102840;27;46476;-65
2022/01/15 09:15:53;;;;;;;59.97;18.23;;;1.20;71.80;;;;;;5102240;27;46472;-65
2022/01/15 09:18:19;;;;;;;72.27;17.30;;;1.20;71.60;;;;;;5100900;27;48565;-65
2022/01/15 09:20:48;;;;;;;84.03;18.35;;;1.20;71.60;;;;;;5121602;27;46542;-66
2022/01/15 09:23:15;;;;;;;35.13;17.58;;;1.20;71.80;;;;;;5104562;27;46480;-65
2022/01/15 09:25:41;;;;;;;50.28;17.70;;;1.20;71.90;;;;;;5123619;27;46395;-66
2022/01/15 09:30:51;;;;;;;43.25;16.25;;;1.10;72.30;;;;;;5104289;27;46262;-64
2022/01/15 09:33:17;;;;;;;71.15;16.83;;;1.10;72.20;;;;;;5106698;27;45864;-65
2022/01/15 09:35:43;;;;;;;28.87;15.20;;;1.20;72.30;;;;;;5104372;27;46382;-66
2022/01/15 09:38:10;;;;;;;33.33;14.48;;;1.20;72.20;;;;;;5103195;27;47789;-67
2022/01/15 09:40:40;;;;;;;61.95;15.45;;;1.40;72.00;;;;;;5102491;27;45958;-66
2022/01/15 09:43:05;;;;;;;37.15;15.07;;;1.40;71.80;;;;;;5103085;27;46355;-66
2022/01/15 09:45:35;;;;;;;33.37;13.97;;;1.50;71.80;;;;;;5102815;27;46500;-67
2022/01/15 09:48:04;;;;;;;40.22;13.80;;;1.50;71.70;;;;;;5103421;27;47471;-65
2022/01/15 09:50:34;;;;;;;44.67;14.15;;;1.50;72.10;;;;;;5105252;27;46567;-66
2022/01/15 09:52:59;;;;;;;69.82;15.77;;;1.40;72.70;;;;;;5118479;27;46419;-66
2022/01/15 09:55:26;;;;;;;41.67;14.90;;;1.20;73.10;;;;;;5104677;27;46479;-65
2022/01/15 09:57:53;;;;;;;42.80;14.77;;;1.10;73.20;;;;;;5104958;27;46400;-66
2022/01/15 10:00:21;;;;;;;32.92;14.75;;;1.10;73.60;;;;;;5109919;27;46441;-65
2022/01/15 10:02:50;;;;;;;31.83;15.02;;;1.20;73.40;;;;;;5102648;27;46602;-66
2022/01/15 10:05:17;;;;;;;24.30;13.70;;;1.50;72.50;;;;;;5093833;27;46444;-65
2022/01/15 10:08:07;;;;;;;83.47;15.27;;;1.70;71.80;;;;;;5102271;27;47780;-66
2022/01/15 10:10:34;;;;;;;54.08;15.40;;;1.70;71.70;;;;;;5117852;27;46726;-66
2022/01/15 10:13:25;;;;;;;29.30;15.73;;;1.80;71.70;;;;;;5100289;27;46463;-66
2022/01/15 10:16:00;;;;;;;67.50;15.93;;;1.90;71.20;;;;;;5101988;27;46351;-68
2022/01/15 10:18:29;;;;;;;49.70;15.50;;;1.90;71.00;;;;;;5105521;27;46338;-65
2022/01/15 10:21:16;;;;;;;129.05;40.30;;;1.80;71.10;;;;;;5101300;27;46586;-65
2022/01/15 10:23:53;;;;;;;87.70;23.08;;;1.80;71.40;;;;;;5089978;27;46376;-66
2022/01/15 10:26:21;;;;;;;38.90;15.35;;;1.80;71.60;;;;;;5102071;27;46515;-66
2022/01/15 10:28:53;;;;;;;48.03;16.95;;;1.70;71.50;;;;;;5082811;27;47777;-67
2022/01/15 10:31:21;;;;;;;35.53;18.25;;;1.60;72.10;;;;;;5104411;27;46419;-66
2022/01/15 10:33:46;;;;;;;57.03;20.00;;;1.80;72.00;;;;;;5102342;27;46456;-65
2022/01/15 10:36:30;;;;;;;46.17;19.60;;;2.00;71.10;;;;;;5108334;27;46512;-66
2022/01/15 10:39:17;;;;;;;74.57;15.65;;;2.10;71.80;;;;;;5101975;27;47314;-66
2022/01/15 10:41:44;;;;;;;93.55;15.20;;;2.00;72.10;;;;;;5088814;27;46449;-66
2022/01/15 10:44:28;;;;;;;43.28;15.13;;;1.80;72.90;;;;;;5094828;27;45825;-67
2022/01/15 10:47:04;;;;;;;88.00;16.55;;;1.60;73.30;;;;;;5093975;27;45852;-67
2022/01/15 10:49:30;;;;;;;49.53;14.40;;;1.50;73.60;;;;;;5102667;27;47929;-66
2022/01/15 10:52:11;;;;;;;47.43;16.07;;;1.50;73.50;;;;;;5086065;27;46393;-67
2022/01/15 10:54:57;;;;;;;54.67;14.35;;;1.50;73.60;;;;;;5102001;27;46273;-66
2022/01/15 10:57:26;;;;;;;47.78;16.10;;;1.50;73.50;;;;;;5106816;27;46285;-64
2022/01/15 11:00:11;;;;;;;29.63;14.82;;;1.70;73.10;;;;;;5103594;27;47934;-66
2022/01/15 11:02:37;;;;;;;26.10;13.75;;;1.80;72.70;;;;;;5111616;27;46446;-66
2022/01/15 11:05:20;;;;;;;33.00;14.57;;;2.00;71.90;;;;;;5110902;27;46799;-65
2022/01/15 11:07:46;;;;;;;45.05;15.25;;;2.10;71.40;;;;;;5113601;27;46613;-65
2022/01/15 11:10:11;;;;;;;43.70;20.45;;;2.20;71.20;;;;;;5117752;27;46409;-66
2022/01/15 11:12:37;;;;;;;39.20;18.93;;;2.10;72.00;;;;;;5118990;27;46400;-66
2022/01/15 11:15:03;;;;;;;39.80;17.20;;;2.00;72.80;;;;;;5108988;27;46502;-67
2022/01/15 11:17:29;;;;;;;32.88;17.48;;;2.10;72.90;;;;;;5105881;27;46404;-66
2022/01/15 11:19:55;;;;;;;30.60;15.10;;;2.10;72.70;;;;;;5106640;27;47935;-67
2022/01/15 11:22:22;;;;;;;37.13;16.30;;;2.30;72.20;;;;;;5105603;27;46404;-66
2022/01/15 11:24:49;;;;;;;42.95;17.33;;;2.20;72.20;;;;;;5107301;27;46511;-66
2022/01/15 11:27:15;;;;;;;34.67;17.45;;;2.10;72.80;;;;;;5108338;27;46584;-64
2022/01/15 11:29:44;;;;;;;31.83;16.50;;;2.20;72.80;;;;;;5108685;27;47652;-67
2022/01/15 11:32:13;;;;;;;32.72;16.30;;;2.30;72.40;;;;;;5110597;27;46623;-65
2022/01/15 11:34:41;;;;;;;35.83;15.65;;;2.10;72.80;;;;;;5108183;27;46456;-66
2022/01/15 11:37:17;;;;;;;44.67;16.65;;;2.00;73.30;;;;;;5112781;27;46324;-67
2022/01/15 11:39:45;;;;;;;37.53;16.52;;;2.00;73.50;;;;;;5105107;27;46402;-65
2022/01/15 11:42:28;;;;;;;53.55;18.75;;;2.00;73.70;;;;;;5105497;27;46525;-66
2022/01/15 11:44:54;;;;;;;30.77;15.23;;;1.90;73.70;;;;;;5095528;27;46472;-67
2022/01/15 11:47:25;;;;;;;43.53;16.60;;;1.80;73.90;;;;;;5106194;27;46770;-68
2022/01/15 11:49:52;;;;;;;37.35;16.23;;;1.90;73.60;;;;;;5107420;27;46453;-67
2022/01/15 11:52:22;;;;;;;53.72;15.45;;;2.00;73.40;;;;;;5107873;27;46356;-65
2022/01/15 11:54:51;;;;;;;31.90;15.85;;;2.00;73.60;;;;;;5105676;27;46403;-66
2022/01/15 11:57:21;;;;;;;31.23;16.80;;;2.00;73.50;;;;;;5104983;27;46560;-66
2022/01/15 11:59:51;;;;;;;41.50;17.88;;;1.90;73.80;;;;;;5112122;27;47899;-65
2022/01/15 12:02:33;;;;;;;44.50;18.17;;;2.00;73.50;;;;;;5103865;27;46456;-64
2022/01/15 12:05:17;;;;;;;36.83;17.08;;;1.90;73.60;;;;;;5104995;27;45889;-66
2022/01/15 12:07:45;;;;;;;52.08;19.88;;;2.00;73.80;;;;;;5104862;27;45994;-65
2022/01/15 12:10:16;;;;;;;45.28;18.23;;;1.90;73.80;;;;;;5102948;27;48736;-68
2022/01/15 12:12:48;;;;;;;41.20;20.10;;;1.90;73.90;;;;;;5109903;27;46629;-66
2022/01/15 12:15:17;;;;;;;35.33;18.00;;;2.00;74.10;;;;;;5104783;27;45803;-66
2022/01/15 12:17:44;;;;;;;38.47;18.50;;;2.10;75.00;;;;;;5121851;27;46588;-66
2022/01/15 12:20:21;;;;;;;64.45;18.17;;;2.30;73.60;;;;;;5107679;27;47871;-66
2022/01/15 12:22:50;;;;;;;62.25;17.30;;;2.40;73.20;;;;;;5103608;27;46415;-67
2022/01/15 12:25:19;;;;;;;43.30;16.90;;;2.30;73.40;;;;;;5112117;27;46449;-65
2022/01/15 12:27:47;;;;;;;41.92;18.38;;;2.40;73.50;;;;;;5109202;27;46220;-65
2022/01/15 12:30:17;;;;;;;47.50;16.38;;;2.50;73.30;;;;;;5104185;27;48065;-67
2022/01/15 12:32:45;;;;;;;37.70;15.65;;;2.30;73.60;;;;;;5091670;27;46400;-66
2022/01/15 12:35:22;;;;;;;42.70;20.08;;;2.20;74.10;;;;;;5105272;27;46319;-66
2022/01/15 12:38:13;;;;;;;48.83;21.50;;;2.30;74.10;;;;;;5094834;27;46396;-65
2022/01/15 12:40:48;;;;;;;42.85;15.57;;;2.30;74.00;;;;;;5126667;27;47874;-66
2022/01/15 12:43:35;;;;;;;47.85;18.17;;;2.30;74.20;;;;;;5110008;27;46289;-67
2022/01/15 12:46:03;;;;;;;39.83;16.30;;;2.30;74.30;;;;;;5107162;27;46432;-67
2022/01/15 12:48:31;;;;;;;40.80;17.80;;;2.30;74.40;;;;;;5098704;27;46423;-67
2022/01/15 12:51:14;;;;;;;44.50;16.63;;;2.40;74.10;;;;;;5107565;27;46329;-64
2022/01/15 12:53:49;;;;;;;35.58;17.52;;;2.40;74.40;;;;;;5104342;27;46507;-68
2022/01/15 12:56:20;;;;;;;46.22;17.20;;;2.30;74.30;;;;;;5104861;27;46347;-68
2022/01/15 12:58:51;;;;;;;55.17;17.27;;;2.40;74.50;;;;;;5103152;27;46400;-67
2022/01/15 13:01:22;;;;;;;58.55;17.65;;;2.50;74.50;;;;;;5104067;27;46546;-68
2022/01/15 13:03:48;;;;;;;36.60;18.48;;;2.50;74.50;;;;;;5103142;27;46694;-66
2022/01/15 13:06:14;;;;;;;54.05;16.20;;;2.50;74.50;;;;;;5104919;27;46447;-67
2022/01/15 13:08:43;;;;;;;37.57;17.93;;;2.40;74.60;;;;;;5102407;27;46432;-67